Sakura — JG5711 — position and weather

sailwx.info

Track history (hours):
 
Tides and Currents Weather Stations Pressure Air Temp Water Temp Dewpoint Dewpoint Depression Visibility Wind Speed Wind Dir Waves Ship Positions

Sakura

Last reported at 2015-Jul-07 08:30 UTC. Time now 2015-Jul-07 17:33 UTC.
Position N 35°28' E 139°40'.

Length 32 m; draft 3.6 m.

Type: Tug. MMSI: 431101178.

Date/timePositionNaut miles runAvg speedWind from/ knotsBaromVisibWave heightAir tempDewpointWater temp
2015-Jul-07 08:30N 35°28' E 139°40'2 2.5
2015-Jul-07 07:33N 35°28' E 139°43'0 0.4
2015-Jul-07 06:33N 35°28' E 139°42'0 0.0
2015-Jul-07 05:33N 35°28' E 139°42'2 2.3
2015-Jul-07 04:33N 35°30' E 139°44'5 4.7
2015-Jul-07 03:33N 35°27' E 139°39'0 0.0
2015-Jul-07 02:33N 35°27' E 139°39'0 0.0
2015-Jul-07 01:33N 35°27' E 139°39'0 0.0
2015-Jul-07 00:33N 35°27' E 139°39'1 1.3
2015-Jul-06 23:33N 35°29' E 139°39'1 1.3
2015-Jul-06 22:33N 35°27' E 139°39'0 0.0
2015-Jul-06 21:33N 35°27' E 139°39'0 0.0
2015-Jul-06 20:33N 35°27' E 139°39'1 0.1
2015-Jul-06 08:34N 35°27' E 139°40'1 1.1
2015-Jul-06 07:33N 35°26' E 139°41'2 2.1
2015-Jul-06 06:34N 35°27' E 139°39'0 0.0
2015-Jul-06 05:34N 35°27' E 139°39'0 0.0
2015-Jul-06 04:34N 35°27' E 139°39'0 0.0
2015-Jul-06 03:34N 35°27' E 139°39'0 0.0
2015-Jul-06 02:34N 35°27' E 139°39'7 6.7
2015-Jul-06 01:33N 35°29' E 139°47'2 1.8
2015-Jul-06 00:33N 35°31' E 139°46'6 6.0
2015-Jul-05 23:33N 35°27' E 139°41'3 3.0
2015-Jul-05 22:33N 35°26' E 139°45'5 4.9
2015-Jul-05 21:33N 35°27' E 139°39'0 0.0
2015-Jul-04 06:33N 35°27' E 139°39'0 0.0
2015-Jul-04 05:33N 35°27' E 139°39'0 0.0
2015-Jul-04 04:33N 35°27' E 139°39'2 1.6
2015-Jul-04 03:33N 35°27' E 139°40'1 0.9
2015-Jul-04 02:33N 35°27' E 139°39'0 0.0
2015-Jul-04 01:34N 35°27' E 139°39'3 3.4
2015-Jul-04 00:33N 35°24' E 139°38'3 2.8
2015-Jul-03 23:33N 35°24' E 139°42'4 4.1
2015-Jul-03 22:33N 35°27' E 139°39'0 0.0
2015-Jul-02 22:33N 35°27' E 139°39'2 1.8
2015-Jul-02 21:33N 35°27' E 139°41'2 2.2
2015-Jul-02 20:33N 35°28' E 139°39'2 1.7
2015-Jul-02 19:33N 35°28' E 139°40'1 0.8
2015-Jul-02 18:33N 35°27' E 139°40'1 0.8
2015-Jul-02 17:33N 35°28' E 139°41'0 0.0
2015-Jul-02 16:33N 35°28' E 139°41'0 0.0
2015-Jul-02 15:33N 35°28' E 139°41'1 1.0
2015-Jul-02 14:33N 35°27' E 139°41'1 0.8
2015-Jul-02 13:33N 35°26' E 139°42'0 0.0
2015-Jul-02 12:33N 35°26' E 139°42'1 1.2
2015-Jul-02 11:33N 35°27' E 139°40'3 2.7
2015-Jul-02 10:33N 35°26' E 139°44'1 1.5
2015-Jul-02 09:33N 35°27' E 139°42'1 1.1
2015-Jul-02 08:33N 35°27' E 139°41'1 0.6
2015-Jul-02 07:33N 35°28' E 139°41'2 2.4
2015-Jul-02 06:33N 35°27' E 139°39'0 0.1
2015-Jul-02 05:33N 35°27' E 139°39'0 0.0
2015-Jul-02 04:33N 35°27' E 139°39'0 0.0
2015-Jul-02 03:33N 35°27' E 139°39'0 0.0
2015-Jul-02 02:33N 35°27' E 139°39'0 0.0
2015-Jul-02 01:33N 35°27' E 139°39'0 0.0
2015-Jul-02 00:33N 35°27' E 139°39'0 0.0
2015-Jul-01 23:33N 35°27' E 139°39'0 0.0
2015-Jul-01 22:33N 35°27' E 139°39'1 0.1
2015-Jul-01 07:27N 35°28' E 139°40'1 1.5
2015-Jul-01 06:33N 35°27' E 139°41'2 2.2
2015-Jul-01 05:33N 35°27' E 139°39'0 0.0
2015-Jul-01 04:33N 35°27' E 139°39'0 0.0
2015-Jul-01 03:33N 35°27' E 139°39'0 0.0
2015-Jul-01 02:30N 35°27' E 139°39'0 0.0
2015-Jul-01 01:33N 35°27' E 139°39'0 0.0
2015-Jul-01 00:33N 35°27' E 139°39'1 0.9
2015-Jun-30 23:33N 35°27' E 139°40'0 0.0
2015-Jun-30 22:33N 35°27' E 139°40'0 0.0
2015-Jun-30 21:33N 35°27' E 139°40'0 0.0
2015-Jun-30 20:33N 35°27' E 139°40'0 0.0
2015-Jun-30 06:33N 35°27' E 139°40'0 0.0
2015-Jun-30 05:33N 35°27' E 139°40'0 0.0
2015-Jun-30 04:33N 35°27' E 139°40'0 0.0
2015-Jun-30 03:33N 35°27' E 139°40'0 0.0
2015-Jun-30 02:33N 35°27' E 139°40'0 0.0
2015-Jun-30 01:33N 35°27' E 139°40'0 0.0
2015-Jun-30 00:33N 35°27' E 139°40'1 0.7
2015-Jun-29 23:33N 35°27' E 139°40'3 3.4
2015-Jun-29 22:33N 35°25' E 139°44'4 4.1
2015-Jun-29 21:33N 35°27' E 139°40'1 0.1
2015-Jun-29 09:33N 35°27' E 139°40'3 2.9
2015-Jun-29 08:33N 35°25' E 139°43'3 3.3
2015-Jun-29 07:33N 35°27' E 139°40'0 0.0
2015-Jun-29 06:33N 35°27' E 139°40'0 0.0
2015-Jun-29 05:33N 35°27' E 139°40'2 1.6
2015-Jun-29 04:33N 35°28' E 139°41'2 2.5
2015-Jun-29 03:33N 35°27' E 139°43'3 2.5
2015-Jun-29 02:33N 35°28' E 139°40'0 0.0
2015-Jun-29 01:33N 35°28' E 139°40'0 0.0
2015-Jun-29 00:33N 35°28' E 139°40'0 0.0
2015-Jun-28 23:33N 35°28' E 139°40'1 1.0
2015-Jun-28 22:33N 35°28' E 139°41'2 1.9
2015-Jun-28 21:33N 35°27' E 139°40'0 0.1
2015-Jun-28 20:33N 35°27' E 139°40'0 0.0
2015-Jun-28 06:16N 35°27' E 139°40'0 0.0
2015-Jun-28 05:34N 35°27' E 139°40'0 0.0
2015-Jun-28 04:34N 35°27' E 139°40'0 0.0
2015-Jun-28 03:33N 35°27' E 139°40'0 0.0
2015-Jun-28 02:34N 35°27' E 139°40'6 6.1
2015-Jun-28 01:33N 35°31' E 139°46'0 0.5
2015-Jun-28 00:33N 35°31' E 139°46'1 1.3
2015-Jun-27 23:33N 35°30' E 139°47'7 6.7
2015-Jun-27 22:34N 35°27' E 139°40'0 0.0
2015-Jun-27 09:28N 35°27' E 139°40'2 2.3
2015-Jun-27 08:34N 35°26' E 139°42'  
Track history (hours):
 
Tides and Currents Weather Stations Pressure Air Temp Water Temp Dewpoint Dewpoint Depression Visibility Wind Speed Wind Dir Waves Ship Positions

Sakura

Last reported at 2015-Jul-07 08:30 UTC. Time now 2015-Jul-07 17:33 UTC.
Position N 35°28' E 139°40'.

Length 32 m; draft 3.6 m.

Type: Tug. MMSI: 431101178.

Date/timePositionNaut miles runAvg speedWind from/ knotsBaromVisibWave heightAir tempDewpointWater temp
2015-Jul-07 08:30N 35°28' E 139°40'2 2.5
2015-Jul-07 07:33N 35°28' E 139°43'0 0.4
2015-Jul-07 06:33N 35°28' E 139°42'0 0.0
2015-Jul-07 05:33N 35°28' E 139°42'2 2.3
2015-Jul-07 04:33N 35°30' E 139°44'5 4.7
2015-Jul-07 03:33N 35°27' E 139°39'0 0.0
2015-Jul-07 02:33N 35°27' E 139°39'0 0.0
2015-Jul-07 01:33N 35°27' E 139°39'0 0.0
2015-Jul-07 00:33N 35°27' E 139°39'1 1.3
2015-Jul-06 23:33N 35°29' E 139°39'1 1.3
2015-Jul-06 22:33N 35°27' E 139°39'0 0.0
2015-Jul-06 21:33N 35°27' E 139°39'0 0.0
2015-Jul-06 20:33N 35°27' E 139°39'1 0.1
2015-Jul-06 08:34N 35°27' E 139°40'1 1.1
2015-Jul-06 07:33N 35°26' E 139°41'2 2.1
2015-Jul-06 06:34N 35°27' E 139°39'0 0.0
2015-Jul-06 05:34N 35°27' E 139°39'0 0.0
2015-Jul-06 04:34N 35°27' E 139°39'0 0.0
2015-Jul-06 03:34N 35°27' E 139°39'0 0.0
2015-Jul-06 02:34N 35°27' E 139°39'7 6.7
2015-Jul-06 01:33N 35°29' E 139°47'2 1.8
2015-Jul-06 00:33N 35°31' E 139°46'6 6.0
2015-Jul-05 23:33N 35°27' E 139°41'3 3.0
2015-Jul-05 22:33N 35°26' E 139°45'5 4.9
2015-Jul-05 21:33N 35°27' E 139°39'0 0.0
2015-Jul-04 06:33N 35°27' E 139°39'0 0.0
2015-Jul-04 05:33N 35°27' E 139°39'0 0.0
2015-Jul-04 04:33N 35°27' E 139°39'2 1.6
2015-Jul-04 03:33N 35°27' E 139°40'1 0.9
2015-Jul-04 02:33N 35°27' E 139°39'0 0.0
2015-Jul-04 01:34N 35°27' E 139°39'3 3.4
2015-Jul-04 00:33N 35°24' E 139°38'3 2.8
2015-Jul-03 23:33N 35°24' E 139°42'4 4.1
2015-Jul-03 22:33N 35°27' E 139°39'0 0.0
2015-Jul-02 22:33N 35°27' E 139°39'2 1.8
2015-Jul-02 21:33N 35°27' E 139°41'2 2.2
2015-Jul-02 20:33N 35°28' E 139°39'2 1.7
2015-Jul-02 19:33N 35°28' E 139°40'1 0.8
2015-Jul-02 18:33N 35°27' E 139°40'1 0.8
2015-Jul-02 17:33N 35°28' E 139°41'0 0.0
2015-Jul-02 16:33N 35°28' E 139°41'0 0.0
2015-Jul-02 15:33N 35°28' E 139°41'1 1.0
2015-Jul-02 14:33N 35°27' E 139°41'1 0.8
2015-Jul-02 13:33N 35°26' E 139°42'0 0.0
2015-Jul-02 12:33N 35°26' E 139°42'1 1.2
2015-Jul-02 11:33N 35°27' E 139°40'3 2.7
2015-Jul-02 10:33N 35°26' E 139°44'1 1.5
2015-Jul-02 09:33N 35°27' E 139°42'1 1.1
2015-Jul-02 08:33N 35°27' E 139°41'1 0.6
2015-Jul-02 07:33N 35°28' E 139°41'2 2.4
2015-Jul-02 06:33N 35°27' E 139°39'0 0.1
2015-Jul-02 05:33N 35°27' E 139°39'0 0.0
2015-Jul-02 04:33N 35°27' E 139°39'0 0.0
2015-Jul-02 03:33N 35°27' E 139°39'0 0.0
2015-Jul-02 02:33N 35°27' E 139°39'0 0.0
2015-Jul-02 01:33N 35°27' E 139°39'0 0.0
2015-Jul-02 00:33N 35°27' E 139°39'0 0.0
2015-Jul-01 23:33N 35°27' E 139°39'0 0.0
2015-Jul-01 22:33N 35°27' E 139°39'1 0.1
2015-Jul-01 07:27N 35°28' E 139°40'1 1.5
2015-Jul-01 06:33N 35°27' E 139°41'2 2.2
2015-Jul-01 05:33N 35°27' E 139°39'0 0.0
2015-Jul-01 04:33N 35°27' E 139°39'0 0.0
2015-Jul-01 03:33N 35°27' E 139°39'0 0.0
2015-Jul-01 02:30N 35°27' E 139°39'0 0.0
2015-Jul-01 01:33N 35°27' E 139°39'0 0.0
2015-Jul-01 00:33N 35°27' E 139°39'1 0.9
2015-Jun-30 23:33N 35°27' E 139°40'0 0.0
2015-Jun-30 22:33N 35°27' E 139°40'0 0.0
2015-Jun-30 21:33N 35°27' E 139°40'0 0.0
2015-Jun-30 20:33N 35°27' E 139°40'0 0.0
2015-Jun-30 06:33N 35°27' E 139°40'0 0.0
2015-Jun-30 05:33N 35°27' E 139°40'0 0.0
2015-Jun-30 04:33N 35°27' E 139°40'0 0.0
2015-Jun-30 03:33N 35°27' E 139°40'0 0.0
2015-Jun-30 02:33N 35°27' E 139°40'0 0.0
2015-Jun-30 01:33N 35°27' E 139°40'0 0.0
2015-Jun-30 00:33N 35°27' E 139°40'1 0.7
2015-Jun-29 23:33N 35°27' E 139°40'3 3.4
2015-Jun-29 22:33N 35°25' E 139°44'4 4.1
2015-Jun-29 21:33N 35°27' E 139°40'1 0.1
2015-Jun-29 09:33N 35°27' E 139°40'3 2.9
2015-Jun-29 08:33N 35°25' E 139°43'3 3.3
2015-Jun-29 07:33N 35°27' E 139°40'0 0.0
2015-Jun-29 06:33N 35°27' E 139°40'0 0.0
2015-Jun-29 05:33N 35°27' E 139°40'2 1.6
2015-Jun-29 04:33N 35°28' E 139°41'2 2.5
2015-Jun-29 03:33N 35°27' E 139°43'3 2.5
2015-Jun-29 02:33N 35°28' E 139°40'0 0.0
2015-Jun-29 01:33N 35°28' E 139°40'0 0.0
2015-Jun-29 00:33N 35°28' E 139°40'0 0.0
2015-Jun-28 23:33N 35°28' E 139°40'1 1.0
2015-Jun-28 22:33N 35°28' E 139°41'2 1.9
2015-Jun-28 21:33N 35°27' E 139°40'0 0.1
2015-Jun-28 20:33N 35°27' E 139°40'0 0.0
2015-Jun-28 06:16N 35°27' E 139°40'0 0.0
2015-Jun-28 05:34N 35°27' E 139°40'0 0.0
2015-Jun-28 04:34N 35°27' E 139°40'0 0.0
2015-Jun-28 03:33N 35°27' E 139°40'0 0.0
2015-Jun-28 02:34N 35°27' E 139°40'6 6.1
2015-Jun-28 01:33N 35°31' E 139°46'0 0.5
2015-Jun-28 00:33N 35°31' E 139°46'1 1.3
2015-Jun-27 23:33N 35°30' E 139°47'7 6.7
2015-Jun-27 22:34N 35°27' E 139°40'0 0.0
2015-Jun-27 09:28N 35°27' E 139°40'2 2.3
2015-Jun-27 08:34N 35°26' E 139°42'  

Dump ship's entire track history